sensor_id;sensor_type;location;lat;lon;timestamp;pressure;altitude;pressure_sealevel;temperature;humidity
58473;BME280;44775;51.564;5.460;2022-12-07T00:01:37;101555.25;;;2.25;100.00
58473;BME280;44775;51.564;5.460;2022-12-07T00:04:08;101559.03;;;2.21;100.00
58473;BME280;44775;51.564;5.460;2022-12-07T00:06:40;101562.06;;;2.15;100.00
58473;BME280;44775;51.564;5.460;2022-12-07T00:09:12;101563.97;;;2.13;100.00
58473;BME280;44775;51.564;5.460;2022-12-07T00:11:38;101556.31;;;2.08;100.00
58473;BME280;44775;51.564;5.460;2022-12-07T00:14:07;101555.66;;;2.05;100.00
58473;BME280;44775;51.564;5.460;2022-12-07T00:16:34;101562.94;;;2.01;100.00
58473;BME280;44775;51.564;5.460;2022-12-07T00:19:00;101563.72;;;1.89;100.00
58473;BME280;44775;51.564;5.460;2022-12-07T00:21:28;101553.06;;;1.91;100.00
58473;BME280;44775;51.564;5.460;2022-12-07T00:23:55;101551.44;;;1.88;100.00
58473;BME280;44775;51.564;5.460;2022-12-07T00:26:23;101544.56;;;1.85;100.00
58473;BME280;44775;51.564;5.460;2022-12-07T00:28:51;101539.41;;;1.84;100.00
58473;BME280;44775;51.564;5.460;2022-12-07T00:31:18;101537.06;;;1.79;100.00
58473;BME280;44775;51.564;5.460;2022-12-07T00:33:44;101534.44;;;1.79;100.00
58473;BME280;44775;51.564;5.460;2022-12-07T00:36:14;101532.66;;;1.80;100.00
58473;BME280;44775;51.564;5.460;2022-12-07T00:38:41;101531.88;;;1.78;100.00
58473;BME280;44775;51.564;5.460;2022-12-07T00:41:10;101543.19;;;1.80;100.00
58473;BME280;44775;51.564;5.460;2022-12-07T00:43:36;101527.56;;;1.77;100.00
58473;BME280;44775;51.564;5.460;2022-12-07T00:46:02;101531.63;;;1.82;100.00
58473;BME280;44775;51.564;5.460;2022-12-07T00:48:28;101536.78;;;1.84;100.00
58473;BME280;44775;51.564;5.460;2022-12-07T00:50:53;101545.53;;;1.84;100.00
58473;BME280;44775;51.564;5.460;2022-12-07T00:53:19;101537.44;;;1.87;100.00
58473;BME280;44775;51.564;5.460;2022-12-07T00:55:45;101539.31;;;1.85;100.00
58473;BME280;44775;51.564;5.460;2022-12-07T00:58:11;101544.50;;;1.87;100.00
58473;BME280;44775;51.564;5.460;2022-12-07T01:00:38;101534.34;;;1.81;100.00
58473;BME280;44775;51.564;5.460;2022-12-07T01:03:05;101529.25;;;1.78;100.00
58473;BME280;44775;51.564;5.460;2022-12-07T01:05:31;101528.50;;;1.76;100.00
58473;BME280;44775;51.564;5.460;2022-12-07T01:07:56;101526.16;;;1.71;100.00
58473;BME280;44775;51.564;5.460;2022-12-07T01:10:22;101527.19;;;1.69;100.00
58473;BME280;44775;51.564;5.460;2022-12-07T01:12:48;101535.66;;;1.74;100.00
58473;BME280;44775;51.564;5.460;2022-12-07T01:15:13;101527.38;;;1.65;100.00
58473;BME280;44775;51.564;5.460;2022-12-07T01:17:39;101529.25;;;1.63;100.00
58473;BME280;44775;51.564;5.460;2022-12-07T01:20:05;101527.66;;;1.61;100.00
58473;BME280;44775;51.564;5.460;2022-12-07T01:22:30;101529.25;;;1.63;100.00
58473;BME280;44775;51.564;5.460;2022-12-07T01:25:17;101538.59;;;1.69;100.00
58473;BME280;44775;51.564;5.460;2022-12-07T01:27:43;101537.53;;;1.72;100.00
58473;BME280;44775;51.564;5.460;2022-12-07T01:30:10;101538.84;;;1.79;100.00
58473;BME280;44775;51.564;5.460;2022-12-07T01:32:36;101544.78;;;1.82;100.00
58473;BME280;44775;51.564;5.460;2022-12-07T01:35:01;101535.94;;;1.83;100.00
58473;BME280;44775;51.564;5.460;2022-12-07T01:37:27;101532.28;;;1.86;100.00
58473;BME280;44775;51.564;5.460;2022-12-07T01:39:52;101536.41;;;1.90;100.00
58473;BME280;44775;51.564;5.460;2022-12-07T01:42:18;101535.16;;;1.96;100.00
58473;BME280;44775;51.564;5.460;2022-12-07T01:47:50;101521.97;;;2.10;100.00
58473;BME280;44775;51.564;5.460;2022-12-07T01:50:17;101544.38;;;2.17;100.00
58473;BME280;44775;51.564;5.460;2022-12-07T01:52:45;101534.84;;;2.15;100.00
58473;BME280;44775;51.564;5.460;2022-12-07T01:55:14;101524.59;;;2.10;100.00
58473;BME280;44775;51.564;5.460;2022-12-07T01:57:52;101532.31;;;2.13;100.00
58473;BME280;44775;51.564;5.460;2022-12-07T02:00:19;101530.81;;;2.09;100.00
58473;BME280;44775;51.564;5.460;2022-12-07T02:02:55;101525.00;;;2.04;100.00
58473;BME280;44775;51.564;5.460;2022-12-07T02:05:24;101533.19;;;1.99;100.00
58473;BME280;44775;51.564;5.460;2022-12-07T02:07:52;101527.53;;;1.91;100.00
58473;BME280;44775;51.564;5.460;2022-12-07T02:10:24;101527.91;;;1.85;100.00
58473;BME280;44775;51.564;5.460;2022-12-07T02:12:55;101526.63;;;1.78;100.00
58473;BME280;44775;51.564;5.460;2022-12-07T02:15:29;101527.47;;;1.64;100.00
58473;BME280;44775;51.564;5.460;2022-12-07T02:18:13;101533.88;;;1.60;100.00
58473;BME280;44775;51.564;5.460;2022-12-07T02:28:53;101523.34;;;1.46;100.00
58473;BME280;44775;51.564;5.460;2022-12-07T02:31:28;101512.59;;;1.34;100.00
58473;BME280;44775;51.564;5.460;2022-12-07T02:36:55;101520.13;;;1.26;100.00
58473;BME280;44775;51.564;5.460;2022-12-07T02:39:33;101511.56;;;1.23;100.00
58473;BME280;44775;51.564;5.460;2022-12-07T02:42:07;101515.03;;;1.23;100.00
58473;BME280;44775;51.564;5.460;2022-12-07T02:44:35;101514.19;;;1.23;100.00
58473;BME280;44775;51.564;5.460;2022-12-07T02:47:04;101513.81;;;1.29;100.00
58473;BME280;44775;51.564;5.460;2022-12-07T02:49:33;101513.81;;;1.29;100.00
58473;BME280;44775;51.564;5.460;2022-12-07T02:51:58;101514.13;;;1.38;100.00
58473;BME280;44775;51.564;5.460;2022-12-07T02:54:24;101509.69;;;1.39;100.00
58473;BME280;44775;51.564;5.460;2022-12-07T02:56:55;101513.91;;;1.41;100.00
58473;BME280;44775;51.564;5.460;2022-12-07T03:02:28;101525.22;;;1.44;100.00
58473;BME280;44775;51.564;5.460;2022-12-07T03:08:02;101522.09;;;1.37;100.00
58473;BME280;44775;51.564;5.460;2022-12-07T03:18:22;101517.50;;;1.40;100.00
58473;BME280;44775;51.564;5.460;2022-12-07T03:20:51;101526.81;;;1.46;100.00
58473;BME280;44775;51.564;5.460;2022-12-07T03:23:18;101517.19;;;1.45;100.00
58473;BME280;44775;51.564;5.460;2022-12-07T03:25:51;101521.06;;;1.39;100.00
58473;BME280;44775;51.564;5.460;2022-12-07T03:28:22;101522.09;;;1.37;100.00
58473;BME280;44775;51.564;5.460;2022-12-07T03:31:06;101517.19;;;1.31;100.00
58473;BME280;44775;51.564;5.460;2022-12-07T03:36:05;101517.78;;;1.36;100.00
58473;BME280;44775;51.564;5.460;2022-12-07T03:38:42;101515.69;;;1.41;100.00
58473;BME280;44775;51.564;5.460;2022-12-07T03:41:20;101513.06;;;1.41;100.00
58473;BME280;44775;51.564;5.460;2022-12-07T03:43:47;101518.53;;;1.52;100.00
58473;BME280;44775;51.564;5.460;2022-12-07T03:49:25;101509.13;;;1.62;100.00
58473;BME280;44775;51.564;5.460;2022-12-07T03:54:40;101501.22;;;1.77;100.00
58473;BME280;44775;51.564;5.460;2022-12-07T03:57:07;101489.47;;;1.82;100.00
58473;BME280;44775;51.564;5.460;2022-12-07T03:59:34;101508.38;;;1.89;100.00
58473;BME280;44775;51.564;5.460;2022-12-07T04:02:04;101499.97;;;1.97;100.00
58473;BME280;44775;51.564;5.460;2022-12-07T04:04:29;101498.72;;;2.02;100.00
58473;BME280;44775;51.564;5.460;2022-12-07T04:06:55;101501.34;;;2.02;100.00
58473;BME280;44775;51.564;5.460;2022-12-07T04:09:21;101506.22;;;2.08;100.00
58473;BME280;44775;51.564;5.460;2022-12-07T04:11:47;101511.44;;;2.10;100.00
58473;BME280;44775;51.564;5.460;2022-12-07T04:14:12;101516.59;;;2.11;100.00
58473;BME280;44775;51.564;5.460;2022-12-07T04:16:54;101511.31;;;2.11;100.00
58473;BME280;44775;51.564;5.460;2022-12-07T04:19:26;101508.03;;;2.08;100.00
58473;BME280;44775;51.564;5.460;2022-12-07T04:21:52;101510.78;;;2.06;100.00
58473;BME280;44775;51.564;5.460;2022-12-07T04:24:17;101508.41;;;2.02;100.00
58473;BME280;44775;51.564;5.460;2022-12-07T04:26:45;101511.63;;;2.07;100.00
58473;BME280;44775;51.564;5.460;2022-12-07T04:29:11;101512.25;;;2.10;100.00
58473;BME280;44775;51.564;5.460;2022-12-07T04:31:36;101507.72;;;2.12;100.00
58473;BME280;44775;51.564;5.460;2022-12-07T04:34:03;101505.84;;;2.15;100.00
58473;BME280;44775;51.564;5.460;2022-12-07T04:36:29;101504.81;;;2.17;100.00
58473;BME280;44775;51.564;5.460;2022-12-07T04:38:55;101500.28;;;2.19;100.00
58473;BME280;44775;51.564;5.460;2022-12-07T04:41:21;101496.78;;;2.19;100.00
58473;BME280;44775;51.564;5.460;2022-12-07T04:43:54;101500.28;;;2.19;100.00
58473;BME280;44775;51.564;5.460;2022-12-07T04:46:20;101494.91;;;2.21;100.00
58473;BME280;44775;51.564;5.460;2022-12-07T04:48:45;101498.50;;;2.20;100.00
58473;BME280;44775;51.564;5.460;2022-12-07T04:51:11;101496.91;;;2.17;100.00
58473;BME280;44775;51.564;5.460;2022-12-07T04:53:36;101494.75;;;2.09;100.00
58473;BME280;44775;51.564;5.460;2022-12-07T04:56:02;101500.97;;;2.08;100.00
58473;BME280;44775;51.564;5.460;2022-12-07T04:58:27;101488.38;;;1.99;100.00
58473;BME280;44775;51.564;5.460;2022-12-07T05:00:55;101494.31;;;2.03;100.00
58473;BME280;44775;51.564;5.460;2022-12-07T05:03:21;101489.13;;;2.01;100.00
58473;BME280;44775;51.564;5.460;2022-12-07T05:05:47;101484.03;;;1.98;100.00
58473;BME280;44775;51.564;5.460;2022-12-07T05:08:12;101481.22;;;2.01;100.00
58473;BME280;44775;51.564;5.460;2022-12-07T05:10:37;101480.03;;;1.93;100.00
58473;BME280;44775;51.564;5.460;2022-12-07T05:13:03;101482.00;;;1.89;100.00
58473;BME280;44775;51.564;5.460;2022-12-07T05:15:28;101479.84;;;1.81;100.00
58473;BME280;44775;51.564;5.460;2022-12-07T05:17:54;101488.03;;;1.77;100.00
58473;BME280;44775;51.564;5.460;2022-12-07T05:20:20;101487.19;;;1.76;100.00
58473;BME280;44775;51.564;5.460;2022-12-07T05:22:45;101485.00;;;1.69;100.00
58473;BME280;44775;51.564;5.460;2022-12-07T05:25:11;101485.88;;;1.69;100.00
58473;BME280;44775;51.564;5.460;2022-12-07T05:27:36;101486.34;;;1.61;100.00
58473;BME280;44775;51.564;5.460;2022-12-07T05:30:02;101493.34;;;1.62;100.00
58473;BME280;44775;51.564;5.460;2022-12-07T05:32:28;101488.13;;;1.61;100.00
58473;BME280;44775;51.564;5.460;2022-12-07T05:34:53;101483.91;;;1.58;100.00
58473;BME280;44775;51.564;5.460;2022-12-07T05:37:20;101495.09;;;1.62;100.00
58473;BME280;44775;51.564;5.460;2022-12-07T05:39:45;101491.91;;;1.57;100.00
58473;BME280;44775;51.564;5.460;2022-12-07T05:42:11;101494.84;;;1.52;100.00
58473;BME280;44775;51.564;5.460;2022-12-07T05:44:44;101489.94;;;1.46;100.00
58473;BME280;44775;51.564;5.460;2022-12-07T05:47:11;101476.97;;;1.29;100.00
58473;BME280;44775;51.564;5.460;2022-12-07T05:49:36;101479.00;;;1.24;100.00
58473;BME280;44775;51.564;5.460;2022-12-07T05:52:02;101481.94;;;1.19;100.00
58473;BME280;44775;51.564;5.460;2022-12-07T05:54:28;101475.25;;;1.13;100.00
58473;BME280;44775;51.564;5.460;2022-12-07T05:56:54;101464.72;;;0.99;100.00
58473;BME280;44775;51.564;5.460;2022-12-07T05:59:20;101477.09;;;0.97;100.00
58473;BME280;44775;51.564;5.460;2022-12-07T06:04:20;101465.59;;;0.84;100.00
58473;BME280;44775;51.564;5.460;2022-12-07T06:06:46;101471.91;;;0.81;100.00
58473;BME280;44775;51.564;5.460;2022-12-07T06:09:12;101463.53;;;0.75;100.00
58473;BME280;44775;51.564;5.460;2022-12-07T06:11:38;101468.63;;;0.78;100.00
58473;BME280;44775;51.564;5.460;2022-12-07T06:14:22;101468.41;;;0.81;100.00
58473;BME280;44775;51.564;5.460;2022-12-07T06:16:48;101471.81;;;0.83;100.00
58473;BME280;44775;51.564;5.460;2022-12-07T06:19:13;101476.22;;;0.82;100.00
58473;BME280;44775;51.564;5.460;2022-12-07T06:21:39;101482.22;;;0.84;100.00
58473;BME280;44775;51.564;5.460;2022-12-07T06:24:05;101480.19;;;0.89;100.00
58473;BME280;44775;51.564;5.460;2022-12-07T06:26:30;101480.97;;;0.91;100.00
58473;BME280;44775;51.564;5.460;2022-12-07T06:28:56;101479.16;;;0.92;100.00
58473;BME280;44775;51.564;5.460;2022-12-07T06:31:21;101483.31;;;0.96;100.00
58473;BME280;44775;51.564;5.460;2022-12-07T06:33:47;101479.91;;;0.94;100.00
58473;BME280;44775;51.564;5.460;2022-12-07T06:36:13;101481.06;;;1.04;100.00
58473;BME280;44775;51.564;5.460;2022-12-07T06:38:38;101488.03;;;1.20;100.00
58473;BME280;44775;51.564;5.460;2022-12-07T06:41:04;101482.41;;;1.26;100.00
58473;BME280;44775;51.564;5.460;2022-12-07T06:43:30;101483.81;;;1.31;100.00
58473;BME280;44775;51.564;5.460;2022-12-07T06:45:55;101482.53;;;1.38;100.00
58473;BME280;44775;51.564;5.460;2022-12-07T06:48:21;101480.31;;;1.45;100.00
58473;BME280;44775;51.564;5.460;2022-12-07T06:50:47;101482.69;;;1.50;100.00
58473;BME280;44775;51.564;5.460;2022-12-07T06:53:13;101480.72;;;1.53;100.00
58473;BME280;44775;51.564;5.460;2022-12-07T06:55:38;101478.09;;;1.53;100.00
58473;BME280;44775;51.564;5.460;2022-12-07T06:58:04;101481.00;;;1.49;100.00
58473;BME280;44775;51.564;5.460;2022-12-07T07:00:29;101478.00;;;1.40;100.00
58473;BME280;44775;51.564;5.460;2022-12-07T07:02:55;101483.53;;;1.36;100.00
58473;BME280;44775;51.564;5.460;2022-12-07T07:05:20;101479.00;;;1.24;100.00
58473;BME280;44775;51.564;5.460;2022-12-07T07:07:50;101483.72;;;1.18;100.00
58473;BME280;44775;51.564;5.460;2022-12-07T07:10:15;101489.91;;;1.17;100.00
58473;BME280;44775;51.564;5.460;2022-12-07T07:12:41;101494.16;;;1.20;100.00
58473;BME280;44775;51.564;5.460;2022-12-07T07:15:06;101495.16;;;1.17;100.00
58473;BME280;44775;51.564;5.460;2022-12-07T07:17:32;101489.72;;;1.21;100.00
58473;BME280;44775;51.564;5.460;2022-12-07T07:19:57;101475.81;;;1.18;100.00
58473;BME280;44775;51.564;5.460;2022-12-07T07:22:23;101491.22;;;1.25;100.00
58473;BME280;44775;51.564;5.460;2022-12-07T07:24:48;101498.22;;;1.26;100.00
58473;BME280;44775;51.564;5.460;2022-12-07T07:27:14;101493.69;;;1.28;100.00
58473;BME280;44775;51.564;5.460;2022-12-07T07:29:39;101491.81;;;1.30;100.00
58473;BME280;44775;51.564;5.460;2022-12-07T07:32:05;101496.78;;;1.34;100.00
58473;BME280;44775;51.564;5.460;2022-12-07T07:34:30;101492.19;;;1.38;100.00
58473;BME280;44775;51.564;5.460;2022-12-07T07:36:56;101497.84;;;1.46;100.00
58473;BME280;44775;51.564;5.460;2022-12-07T07:39:21;101485.59;;;1.45;100.00
58473;BME280;44775;51.564;5.460;2022-12-07T07:41:47;101496.59;;;1.52;100.00
58473;BME280;44775;51.564;5.460;2022-12-07T07:44:12;101499.91;;;1.55;100.00
58473;BME280;44775;51.564;5.460;2022-12-07T07:46:37;101498.22;;;1.54;100.00
58473;BME280;44775;51.564;5.460;2022-12-07T07:49:03;101498.22;;;1.54;100.00
58473;BME280;44775;51.564;5.460;2022-12-07T07:51:28;101501.41;;;1.59;100.00
58473;BME280;44775;51.564;5.460;2022-12-07T07:53:54;101500.47;;;1.60;100.00
58473;BME280;44775;51.564;5.460;2022-12-07T07:56:20;101499.97;;;1.68;100.00
58473;BME280;44775;51.564;5.460;2022-12-07T07:58:45;101499.16;;;1.68;100.00
58473;BME280;44775;51.564;5.460;2022-12-07T08:01:11;101495.66;;;1.67;100.00
58473;BME280;44775;51.564;5.460;2022-12-07T08:03:38;101498.59;;;1.62;100.00
58473;BME280;44775;51.564;5.460;2022-12-07T08:06:04;101494.53;;;1.57;100.00
58473;BME280;44775;51.564;5.460;2022-12-07T08:08:30;101504.97;;;1.58;100.00
58473;BME280;44775;51.564;5.460;2022-12-07T08:10:56;101509.13;;;1.48;100.00
58473;BME280;44775;51.564;5.460;2022-12-07T08:13:21;101505.16;;;1.41;100.00
58473;BME280;44775;51.564;5.460;2022-12-07T08:15:47;101507.97;;;1.38;100.00
58473;BME280;44775;51.564;5.460;2022-12-07T08:18:14;101508.75;;;1.40;100.00
58473;BME280;44775;51.564;5.460;2022-12-07T08:20:41;101496.06;;;1.32;100.00
58473;BME280;44775;51.564;5.460;2022-12-07T08:23:07;101514.19;;;1.37;100.00
58473;BME280;44775;51.564;5.460;2022-12-07T08:25:33;101520.03;;;1.42;100.00
58473;BME280;44775;51.564;5.460;2022-12-07T08:27:59;101517.50;;;1.55;100.00
58473;BME280;44775;51.564;5.460;2022-12-07T08:30:26;101509.69;;;1.68;100.00
58473;BME280;44775;51.564;5.460;2022-12-07T08:32:51;101522.66;;;1.85;100.00
58473;BME280;44775;51.564;5.460;2022-12-07T08:35:17;101526.41;;;1.95;100.00
58473;BME280;44775;51.564;5.460;2022-12-07T08:37:44;101525.53;;;2.09;100.00
58473;BME280;44775;51.564;5.460;2022-12-07T08:40:12;101518.06;;;2.16;100.00
58473;BME280;44775;51.564;5.460;2022-12-07T08:42:42;101513.81;;;2.27;100.00
58473;BME280;44775;51.564;5.460;2022-12-07T08:45:13;101520.41;;;2.34;100.00
58473;BME280;44775;51.564;5.460;2022-12-07T08:47:47;101518.00;;;2.44;100.00
58473;BME280;44775;51.564;5.460;2022-12-07T08:50:14;101511.97;;;2.42;100.00
58473;BME280;44775;51.564;5.460;2022-12-07T08:52:41;101516.84;;;2.48;100.00
58473;BME280;44775;51.564;5.460;2022-12-07T08:55:09;101514.78;;;2.53;100.00
58473;BME280;44775;51.564;5.460;2022-12-07T08:57:36;101509.06;;;2.59;100.00
58473;BME280;44775;51.564;5.460;2022-12-07T09:00:04;101508.88;;;2.63;100.00
58473;BME280;44775;51.564;5.460;2022-12-07T09:02:31;101504.88;;;2.57;100.00
58473;BME280;44775;51.564;5.460;2022-12-07T09:04:56;101507.31;;;2.60;100.00
58473;BME280;44775;51.564;5.460;2022-12-07T09:07:22;101511.50;;;2.63;100.00
58473;BME280;44775;51.564;5.460;2022-12-07T09:09:47;101499.28;;;2.62;100.00
58473;BME280;44775;51.564;5.460;2022-12-07T09:12:13;101508.47;;;2.69;100.00
58473;BME280;44775;51.564;5.460;2022-12-07T09:14:38;101503.97;;;2.71;100.00
58473;BME280;44775;51.564;5.460;2022-12-07T09:17:08;101508.84;;;2.77;100.00
58473;BME280;44775;51.564;5.460;2022-12-07T09:19:34;101512.97;;;2.81;100.00
58473;BME280;44775;51.564;5.460;2022-12-07T09:22:01;101509.47;;;2.80;100.00
58473;BME280;44775;51.564;5.460;2022-12-07T09:24:26;101505.25;;;2.78;100.00
58473;BME280;44775;51.564;5.460;2022-12-07T09:26:52;101515.69;;;2.79;100.00
58473;BME280;44775;51.564;5.460;2022-12-07T09:29:17;101509.97;;;2.73;100.00
58473;BME280;44775;51.564;5.460;2022-12-07T09:31:42;101519.88;;;2.69;100.00
58473;BME280;44775;51.564;5.460;2022-12-07T09:34:08;101507.19;;;2.62;100.00
58473;BME280;44775;51.564;5.460;2022-12-07T09:36:33;101511.63;;;2.61;100.00
58473;BME280;44775;51.564;5.460;2022-12-07T09:38:59;101508.34;;;2.57;100.00
58473;BME280;44775;51.564;5.460;2022-12-07T09:41:27;101516.34;;;2.56;100.00
58473;BME280;44775;51.564;5.460;2022-12-07T09:44:02;101520.72;;;2.70;100.00
58473;BME280;44775;51.564;5.460;2022-12-07T09:46:29;101512.75;;;2.84;100.00
58473;BME280;44775;51.564;5.460;2022-12-07T09:48:59;101515.09;;;3.01;100.00
58473;BME280;44775;51.564;5.460;2022-12-07T09:51:25;101508.75;;;3.17;100.00
58473;BME280;44775;51.564;5.460;2022-12-07T09:53:53;101513.44;;;3.26;100.00
58473;BME280;44775;51.564;5.460;2022-12-07T09:56:20;101512.25;;;3.30;100.00
58473;BME280;44775;51.564;5.460;2022-12-07T09:58:46;101503.91;;;3.36;100.00
58473;BME280;44775;51.564;5.460;2022-12-07T10:01:17;101514.50;;;3.62;100.00
58473;BME280;44775;51.564;5.460;2022-12-07T10:03:55;101506.84;;;3.70;100.00
58473;BME280;44775;51.564;5.460;2022-12-07T10:06:23;101509.13;;;4.00;100.00
58473;BME280;44775;51.564;5.460;2022-12-07T10:08:48;101509.47;;;4.32;100.00
58473;BME280;44775;51.564;5.460;2022-12-07T10:11:14;101496.47;;;4.64;100.00
58473;BME280;44775;51.564;5.460;2022-12-07T10:13:51;101502.72;;;4.98;100.00
58473;BME280;44775;51.564;5.460;2022-12-07T10:18:50;101479.69;;;5.45;100.00
58473;BME280;44775;51.564;5.460;2022-12-07T10:21:18;101490.63;;;5.63;100.00
58473;BME280;44775;51.564;5.460;2022-12-07T10:24:03;101490.91;;;5.72;100.00
58473;BME280;44775;51.564;5.460;2022-12-07T10:29:12;101490.28;;;5.45;100.00
58473;BME280;44775;51.564;5.460;2022-12-07T10:31:40;101496.28;;;5.36;100.00
58473;BME280;44775;51.564;5.460;2022-12-07T10:34:24;101491.88;;;5.37;100.00
58473;BME280;44775;51.564;5.460;2022-12-07T10:36:51;101495.59;;;5.45;100.00
58473;BME280;44775;51.564;5.460;2022-12-07T10:39:21;101493.41;;;5.73;100.00
58473;BME280;44775;51.564;5.460;2022-12-07T10:42:01;101483.91;;;6.04;100.00
58473;BME280;44775;51.564;5.460;2022-12-07T10:44:32;101477.81;;;6.25;100.00
58473;BME280;44775;51.564;5.460;2022-12-07T10:52:42;101475.91;;;6.80;100.00
58473;BME280;44775;51.564;5.460;2022-12-07T10:55:23;101476.16;;;6.98;100.00
58473;BME280;44775;51.564;5.460;2022-12-07T11:00:26;101474.31;;;6.89;100.00
58473;BME280;44775;51.564;5.460;2022-12-07T11:03:07;101469.91;;;6.99;100.00
58473;BME280;44775;51.564;5.460;2022-12-07T11:05:48;101477.00;;;7.19;100.00
58473;BME280;44775;51.564;5.460;2022-12-07T11:08:30;101468.81;;;7.32;100.00
58473;BME280;44775;51.564;5.460;2022-12-07T11:11:13;101466.72;;;7.36;100.00
58473;BME280;44775;51.564;5.460;2022-12-07T11:14:04;101464.22;;;7.34;100.00
58473;BME280;44775;51.564;5.460;2022-12-07T11:22:00;101447.06;;;7.17;100.00
58473;BME280;44775;51.564;5.460;2022-12-07T11:24:55;101456.19;;;7.24;100.00
58473;BME280;44775;51.564;5.460;2022-12-07T11:27:29;101446.31;;;7.15;100.00
58473;BME280;44775;51.564;5.460;2022-12-07T11:35:10;101447.69;;;7.30;100.00
58473;BME280;44775;51.564;5.460;2022-12-07T11:37:40;101441.31;;;7.12;100.00
58473;BME280;44775;51.564;5.460;2022-12-07T11:40:27;101434.38;;;7.00;100.00
58473;BME280;44775;51.564;5.460;2022-12-07T11:43:21;101431.91;;;6.87;100.00
58473;BME280;44775;51.564;5.460;2022-12-07T11:45:50;101429.19;;;6.77;100.00
58473;BME280;44775;51.564;5.460;2022-12-07T11:48:38;101434.16;;;6.71;100.00
58473;BME280;44775;51.564;5.460;2022-12-07T11:51:10;101430.59;;;6.60;100.00
58473;BME280;44775;51.564;5.460;2022-12-07T12:06:41;101399.41;;;6.21;100.00
58473;BME280;44775;51.564;5.460;2022-12-07T12:09:26;101409.41;;;6.28;100.00
58473;BME280;44775;51.564;5.460;2022-12-07T12:19:42;101405.88;;;8.02;100.00
58473;BME280;44775;51.564;5.460;2022-12-07T12:22:15;101397.63;;;8.05;99.87
58473;BME280;44775;51.564;5.460;2022-12-07T12:24:45;101393.56;;;8.01;97.35
58473;BME280;44775;51.564;5.460;2022-12-07T12:27:25;101391.44;;;7.85;99.27
58473;BME280;44775;51.564;5.460;2022-12-07T12:29:57;101392.81;;;7.70;99.88
58473;BME280;44775;51.564;5.460;2022-12-07T12:35:29;101386.41;;;7.42;100.00
58473;BME280;44775;51.564;5.460;2022-12-07T12:40:49;101375.28;;;7.17;100.00
58473;BME280;44775;51.564;5.460;2022-12-07T12:51:42;101371.91;;;7.05;100.00
58473;BME280;44775;51.564;5.460;2022-12-07T12:59:41;101368.66;;;7.42;100.00
58473;BME280;44775;51.564;5.460;2022-12-07T13:02:26;101368.94;;;7.49;100.00
58473;BME280;44775;51.564;5.460;2022-12-07T13:05:14;101357.78;;;7.55;100.00
58473;BME280;44775;51.564;5.460;2022-12-07T13:13:04;101350.06;;;7.52;98.45
58473;BME280;44775;51.564;5.460;2022-12-07T13:18:04;101339.47;;;7.21;98.25
58473;BME280;44775;51.564;5.460;2022-12-07T13:20:45;101344.97;;;7.29;100.00
58473;BME280;44775;51.564;5.460;2022-12-07T13:23:13;101341.78;;;7.05;100.00
58473;BME280;44775;51.564;5.460;2022-12-07T13:25:51;101342.47;;;6.97;100.00
58473;BME280;44775;51.564;5.460;2022-12-07T13:28:21;101323.75;;;6.99;100.00
58473;BME280;44775;51.564;5.460;2022-12-07T13:33:28;101333.03;;;7.14;100.00
58473;BME280;44775;51.564;5.460;2022-12-07T13:35:54;101334.69;;;7.05;100.00
58473;BME280;44775;51.564;5.460;2022-12-07T13:38:27;101327.78;;;6.93;100.00
58473;BME280;44775;51.564;5.460;2022-12-07T13:41:21;101328.72;;;6.82;100.00
58473;BME280;44775;51.564;5.460;2022-12-07T13:50:40;101321.03;;;6.58;100.00
58473;BME280;44775;51.564;5.460;2022-12-07T13:52:43;101314.44;;;6.53;100.00
58473;BME280;44775;51.564;5.460;2022-12-07T13:55:16;101308.94;;;6.45;100.00
58473;BME280;44775;51.564;5.460;2022-12-07T13:57:52;101308.06;;;6.44;100.00
58473;BME280;44775;51.564;5.460;2022-12-07T14:00:21;101287.44;;;6.27;100.00
58473;BME280;44775;51.564;5.460;2022-12-07T14:05:26;101292.41;;;5.99;100.00
58473;BME280;44775;51.564;5.460;2022-12-07T14:08:00;101297.38;;;5.93;100.00
58473;BME280;44775;51.564;5.460;2022-12-07T14:10:31;101292.78;;;5.83;100.00
58473;BME280;44775;51.564;5.460;2022-12-07T14:12:59;101292.34;;;5.78;100.00
58473;BME280;44775;51.564;5.460;2022-12-07T14:15:28;101285.09;;;5.80;100.00
58473;BME280;44775;51.564;5.460;2022-12-07T14:17:57;101283.91;;;5.73;100.00
58473;BME280;44775;51.564;5.460;2022-12-07T14:20:34;101284.13;;;5.93;100.00
58473;BME280;44775;51.564;5.460;2022-12-07T14:23:00;101278.59;;;5.84;100.00
58473;BME280;44775;51.564;5.460;2022-12-07T14:25:47;101282.00;;;5.75;100.00
58473;BME280;44775;51.564;5.460;2022-12-07T14:28:30;101285.56;;;5.53;100.00
58473;BME280;44775;51.564;5.460;2022-12-07T14:30:56;101284.75;;;5.41;100.00
58473;BME280;44775;51.564;5.460;2022-12-07T14:33:23;101275.06;;;5.08;100.00
58473;BME280;44775;51.564;5.460;2022-12-07T14:35:49;101285.91;;;5.05;100.00
58473;BME280;44775;51.564;5.460;2022-12-07T14:38:14;101277.72;;;4.97;100.00
58473;BME280;44775;51.564;5.460;2022-12-07T14:40:40;101275.56;;;4.91;100.00
58473;BME280;44775;51.564;5.460;2022-12-07T14:43:10;101269.69;;;4.76;100.00
58473;BME280;44775;51.564;5.460;2022-12-07T14:45:37;101275.91;;;4.75;100.00
58473;BME280;44775;51.564;5.460;2022-12-07T14:48:05;101272.66;;;4.71;100.00
58473;BME280;44775;51.564;5.460;2022-12-07T14:50:35;101271.22;;;4.67;100.00
58473;BME280;44775;51.564;5.460;2022-12-07T14:53:06;101276.16;;;4.61;100.00
58473;BME280;44775;51.564;5.460;2022-12-07T14:55:36;101277.22;;;4.58;100.00
58473;BME280;44775;51.564;5.460;2022-12-07T14:58:01;101268.94;;;4.52;100.00
58473;BME280;44775;51.564;5.460;2022-12-07T15:00:28;101270.50;;;4.43;100.00
58473;BME280;44775;51.564;5.460;2022-12-07T15:02:54;101258.56;;;4.37;100.00